Liberty, Iowa
Current Conditions -  °F | °C
As of 9:15 PM on Friday 21 Nov 2014 (Local Time) from KI75 Reporting Station
Overcast Overcast  
Wind Chill: 28°   Ceiling: 1400
Heat Index: 36°   Visibility: 10mi
Dew Point: 31°   Wind: 10mph
Humidity: 84%   Direction: 170°S
Pressure: 30.06"   Gusts: NA
Location:  41.1554°N, 93.6829°W
Report Text: KI75 220315Z AUTO 17009KT 10SM OVC014 02/00 A3006 RMK AO2 T00201005
Loading
Personal Weather Stations






























Interactive Weather Map New forecast layout! Learn more

10-Day Weather Forecast

Advertisements
Track Severe Weather on mobile